Terminal Aerodrome Forecast
Issued by NWS Sioux Falls, SD

Home | Current Version | Previous Version | Text Only | Print | Product List | Glossary On
Versions: 1 2 3 4 5 6 7 8 9 10 11 12 13
000
FTUS43 KFSD 222320
TAFFSD
TAF
KFSD 222320Z 2300/2324 18018G25KT P6SM SKC
     FM230400 17015G23KT P6SM SKC WS015/20045KT
     FM231100 17012KT P6SM SKC
     FM231500 17016G24KT P6SM SKC
     FM231800 17019G29KT P6SM SCT150
     FM232100 16018G28KT P6SM VCTS SCT120CB=

USA.gov is the U.S. government's official web portal to all federal, state and local government web resources and services.